Terminal Aerodrome Forecast
Issued by NWS Shreveport, LA

Home | Current Version | Previous Version | Text Only | Print | Product List | Glossary On
Versions: 1 2 3 4 5 6 7 8 9 10 11 12 13 14 15 16 17 18 19
000
FTUS44 KSHV 052325
TAFTYR
TAF
KTYR 052325Z 0600/0624 VRB04KT 4SM -DZ BR OVC007
      TEMPO 0600/0604 2SM -RA BR OVC004
     FM060600 VRB04KT 2SM -DZ BR OVC004
     FM061400 VRB04KT P6SM OVC009
     FM061600 02008KT P6SM OVC010=

USA.gov is the U.S. government's official web portal to all federal, state and local government web resources and services.